createdAt,value
2022-08-12T00:00:34.769Z,2.17
2022-08-12T00:03:20.995Z,2.22
2022-08-12T00:06:07.945Z,1.80
2022-08-12T00:08:54.938Z,1.77
2022-08-12T00:11:41.928Z,2.17
2022-08-12T00:14:28.028Z,1.70
2022-08-12T00:17:16.181Z,1.90
2022-08-12T00:20:01.457Z,2.03
2022-08-12T00:22:58.670Z,2.33
2022-08-12T00:26:21.073Z,1.83
2022-08-12T00:29:04.419Z,2.38
2022-08-12T00:31:49.625Z,1.80
2022-08-12T00:34:35.637Z,2.08
2022-08-12T00:37:21.165Z,1.92
2022-08-12T00:40:11.234Z,1.95
2022-08-12T00:42:40.456Z,2.20
2022-08-12T00:45:07.850Z,1.92
2022-08-12T00:47:36.141Z,2.00
2022-08-12T00:50:06.494Z,2.10
2022-08-12T00:52:34.948Z,2.13
2022-08-12T00:55:05.921Z,2.05
2022-08-12T00:57:37.788Z,2.42
2022-08-12T01:00:18.581Z,2.33
2022-08-12T01:02:49.320Z,2.42
2022-08-12T01:05:39.114Z,2.25
2022-08-12T01:08:24.841Z,2.50
2022-08-12T01:11:10.285Z,2.53
2022-08-12T01:13:47.271Z,2.40
2022-08-12T01:16:17.730Z,2.40
2022-08-12T01:18:45.191Z,2.85
2022-08-12T01:21:27.152Z,2.35
2022-08-12T01:24:32.082Z,2.60
2022-08-12T01:27:00.249Z,2.60
2022-08-12T01:29:33.231Z,2.95
2022-08-12T01:32:05.577Z,2.88
2022-08-12T01:34:37.538Z,2.72
2022-08-12T01:37:07.631Z,3.03
2022-08-12T01:40:34.259Z,2.53
2022-08-12T01:42:34.071Z,2.60
2022-08-12T01:45:02.471Z,2.33
2022-08-12T01:47:49.866Z,2.55
2022-08-12T01:50:36.898Z,2.85
2022-08-12T01:53:10.537Z,2.35
2022-08-12T01:55:46.971Z,2.47
2022-08-12T01:58:27.843Z,2.42
2022-08-12T02:00:59.363Z,2.72
2022-08-12T02:04:00.113Z,2.92
2022-08-12T02:06:50.874Z,3.33
2022-08-12T02:09:46.744Z,2.60
2022-08-12T02:12:43.818Z,2.75
2022-08-12T02:15:39.026Z,3.28
2022-08-12T02:18:32.962Z,2.72
2022-08-12T02:21:16.963Z,3.00
2022-08-12T02:23:43.736Z,2.70
2022-08-12T02:26:15.882Z,2.80
2022-08-12T02:28:42.623Z,3.15
2022-08-12T02:31:09.504Z,2.60
2022-08-12T02:33:37.731Z,3.00
2022-08-12T02:36:05.558Z,2.88
2022-08-12T02:38:32.905Z,2.67
2022-08-12T02:41:02.841Z,2.80
2022-08-12T02:43:51.236Z,3.40
2022-08-12T02:46:32.446Z,3.08
2022-08-12T02:49:06.452Z,2.63
2022-08-12T02:51:40.530Z,2.75
2022-08-12T02:54:07.574Z,3.33
2022-08-12T02:56:40.723Z,3.22
2022-08-12T02:59:16.847Z,2.97
2022-08-12T03:01:53.606Z,2.78
2022-08-12T03:04:35.820Z,2.78
2022-08-12T03:07:18.091Z,2.78
2022-08-12T03:10:03.747Z,3.10
2022-08-12T03:12:40.036Z,2.72
2022-08-12T03:15:18.304Z,3.53
2022-08-12T03:18:25.870Z,2.80
2022-08-12T03:20:43.812Z,2.92
2022-08-12T03:23:19.353Z,3.17
2022-08-12T03:26:02.522Z,3.15
2022-08-12T03:28:51.108Z,3.28
2022-08-12T03:31:29.728Z,3.47
2022-08-12T03:34:12.788Z,3.67
2022-08-12T03:36:42.050Z,3.35
2022-08-12T03:39:18.219Z,2.65
2022-08-12T03:41:58.068Z,2.25
2022-08-12T03:45:01.806Z,2.97
2022-08-12T03:47:52.401Z,2.85
2022-08-12T03:50:39.033Z,2.90
2022-08-12T03:53:29.108Z,3.08
2022-08-12T03:56:15.223Z,3.22
2022-08-12T03:59:00.493Z,3.28
2022-08-12T04:01:27.518Z,3.20
2022-08-12T04:03:57.727Z,3.58
2022-08-12T04:06:35.496Z,3.40
2022-08-12T04:09:16.562Z,3.60
2022-08-12T04:12:03.850Z,3.60
2022-08-12T04:14:34.035Z,3.40
2022-08-12T04:17:01.535Z,3.10
2022-08-12T04:19:28.615Z,3.92
2022-08-12T04:22:02.956Z,3.38
2022-08-12T04:24:36.394Z,3.53
2022-08-12T04:27:08.774Z,3.28
2022-08-12T04:30:29.338Z,3.55
2022-08-12T04:32:24.919Z,3.60
2022-08-12T04:34:51.934Z,3.80
2022-08-12T04:37:19.356Z,3.90
2022-08-12T04:39:46.399Z,3.30
2022-08-12T04:42:13.185Z,3.60
2022-08-12T04:44:40.193Z,3.63
2022-08-12T04:47:10.503Z,4.03
2022-08-12T04:49:38.215Z,3.63
2022-08-12T04:52:05.387Z,3.78
2022-08-12T04:54:34.581Z,3.78
2022-08-12T04:57:04.284Z,4.18
2022-08-12T04:59:46.991Z,4.07
2022-08-12T05:02:21.534Z,4.13
2022-08-12T05:04:51.859Z,4.32
2022-08-12T05:07:19.624Z,4.10
2022-08-12T05:09:59.829Z,3.72
2022-08-12T05:12:34.298Z,4.22
2022-08-12T05:15:01.127Z,4.03
2022-08-12T05:17:28.271Z,4.32
2022-08-12T05:19:57.039Z,4.07
2022-08-12T05:22:24.134Z,5.10
2022-08-12T05:24:50.707Z,5.38
2022-08-12T05:27:19.592Z,5.43
2022-08-12T05:30:08.272Z,4.93
2022-08-12T05:32:37.055Z,5.93
2022-08-12T05:35:06.880Z,5.00
2022-08-12T05:37:36.670Z,4.78
2022-08-12T05:40:11.162Z,5.03
2022-08-12T05:42:38.482Z,5.05
2022-08-12T05:45:05.957Z,4.90
2022-08-12T05:47:48.523Z,4.60
2022-08-12T05:50:20.017Z,5.07
2022-08-12T05:52:49.051Z,5.78
2022-08-12T05:55:15.736Z,4.70
2022-08-12T05:57:48.409Z,4.50
2022-08-12T06:00:18.465Z,4.90
2022-08-12T06:02:46.506Z,4.53
2022-08-12T06:05:14.033Z,4.60
2022-08-12T06:08:01.485Z,4.82
2022-08-12T06:10:32.180Z,4.97
2022-08-12T06:13:04.896Z,5.13
2022-08-12T06:15:33.263Z,4.70
2022-08-12T06:18:13.967Z,5.15
2022-08-12T06:20:43.872Z,5.22
2022-08-12T06:23:11.887Z,5.18
2022-08-12T06:25:38.876Z,5.00
2022-08-12T06:28:16.639Z,4.57
2022-08-12T06:30:57.328Z,4.40
2022-08-12T06:34:00.624Z,4.97
2022-08-12T06:36:25.224Z,4.85
2022-08-12T06:38:59.545Z,5.03
2022-08-12T06:42:05.154Z,4.65
2022-08-12T06:44:33.269Z,4.95
2022-08-12T06:47:00.140Z,5.15
2022-08-12T06:49:28.565Z,5.03
2022-08-12T06:51:56.953Z,5.30
2022-08-12T06:54:30.937Z,5.80
2022-08-12T06:57:05.280Z,5.22
2022-08-12T06:59:46.645Z,5.82
2022-08-12T07:02:13.236Z,5.40
2022-08-12T07:04:39.949Z,5.68
2022-08-12T07:07:11.114Z,5.55
2022-08-12T07:10:05.371Z,6.43
2022-08-12T07:12:27.910Z,6.90
2022-08-12T07:14:54.953Z,5.88
2022-08-12T07:17:21.692Z,6.75
2022-08-12T07:19:50.177Z,5.80
2022-08-12T07:22:16.979Z,5.65
2022-08-12T07:25:04.085Z,5.70
2022-08-12T07:27:31.134Z,5.72
2022-08-12T07:30:04.442Z,5.22
2022-08-12T07:32:31.672Z,6.30
2022-08-12T07:34:58.311Z,6.28
2022-08-12T07:37:24.906Z,5.25
2022-08-12T07:39:59.816Z,5.72
2022-08-12T07:42:29.195Z,5.88
2022-08-12T07:44:56.419Z,5.63
2022-08-12T07:47:27.532Z,4.85
2022-08-12T07:50:04.589Z,5.80
2022-08-12T07:52:36.612Z,4.93
2022-08-12T07:55:04.061Z,5.13
2022-08-12T07:57:33.842Z,5.07
2022-08-12T08:00:05.494Z,5.22
2022-08-12T08:02:33.810Z,5.53
2022-08-12T08:05:00.819Z,4.90
2022-08-12T08:07:30.778Z,5.32
2022-08-12T08:09:59.672Z,4.25
2022-08-12T08:12:51.412Z,4.93
2022-08-12T08:15:18.167Z,4.95
2022-08-12T08:17:57.933Z,4.70
2022-08-12T08:20:29.102Z,4.55
2022-08-12T08:22:58.070Z,3.95
2022-08-12T08:25:35.704Z,4.90
2022-08-12T08:28:06.951Z,4.63
2022-08-12T08:30:34.598Z,4.50
2022-08-12T08:33:01.282Z,3.97
2022-08-12T08:35:46.253Z,3.38
2022-08-12T08:38:32.435Z,3.03
2022-08-12T08:42:13.924Z,2.53
2022-08-12T08:44:11.341Z,2.90
2022-08-12T08:46:44.750Z,2.47
2022-08-12T08:49:12.896Z,3.30
2022-08-12T08:51:40.087Z,3.35
2022-08-12T08:54:12.219Z,2.78
2022-08-12T08:56:43.827Z,2.63
2022-08-12T08:59:13.895Z,2.47
2022-08-12T09:01:44.382Z,2.70
2022-08-12T09:05:09.714Z,2.72
2022-08-12T09:07:00.172Z,2.25
2022-08-12T09:09:28.383Z,2.70
2022-08-12T09:12:33.198Z,3.58
2022-08-12T09:15:07.124Z,2.63
2022-08-12T09:17:55.811Z,3.05
2022-08-12T09:20:29.352Z,2.78
2022-08-12T09:23:01.238Z,3.40
2022-08-12T09:25:36.537Z,2.88
2022-08-12T09:28:05.980Z,3.15
2022-08-12T09:30:52.082Z,2.50
2022-08-12T09:34:27.949Z,2.85
2022-08-12T09:36:08.033Z,2.88
2022-08-12T09:38:58.532Z,2.80
2022-08-12T09:42:35.178Z,2.72
2022-08-12T09:44:39.202Z,2.90
2022-08-12T09:47:10.649Z,2.83
2022-08-12T09:49:42.295Z,2.67
2022-08-12T09:52:13.985Z,2.50
2022-08-12T09:54:42.888Z,2.22
2022-08-12T09:58:46.129Z,2.33
2022-08-12T10:00:17.834Z,2.75
2022-08-12T10:03:08.747Z,2.17
2022-08-12T10:06:26.295Z,2.00
2022-08-12T10:08:44.692Z,2.20
2022-08-12T10:12:10.728Z,2.17
2022-08-12T10:14:34.636Z,2.05
2022-08-12T10:17:03.235Z,2.10
2022-08-12T10:19:36.965Z,2.30
2022-08-12T10:22:16.554Z,2.50
2022-08-12T10:25:04.845Z,2.20
2022-08-12T10:28:08.380Z,2.05
2022-08-12T10:30:46.899Z,2.03
2022-08-12T10:33:31.671Z,2.83
2022-08-12T10:35:59.854Z,2.38
2022-08-12T10:38:38.065Z,2.33
2022-08-12T10:41:57.730Z,2.42
2022-08-12T10:44:17.329Z,2.00
2022-08-12T10:46:49.551Z,2.10
2022-08-12T10:50:02.724Z,2.22
2022-08-12T10:52:33.901Z,1.98
2022-08-12T10:54:58.817Z,2.00
2022-08-12T10:58:13.145Z,2.03
2022-08-12T11:00:33.700Z,2.40
2022-08-12T11:04:35.359Z,2.00
2022-08-12T11:07:07.544Z,1.90
2022-08-12T11:08:43.036Z,2.42
2022-08-12T11:12:08.390Z,2.25
2022-08-12T11:14:13.014Z,2.05
2022-08-12T11:17:33.750Z,2.15
2022-08-12T11:19:48.866Z,1.92
2022-08-12T11:22:15.512Z,1.70
2022-08-12T11:24:51.731Z,1.92
2022-08-12T11:27:20.431Z,2.30
2022-08-12T11:30:02.330Z,2.28
2022-08-12T11:32:39.205Z,2.33
2022-08-12T11:35:06.837Z,2.22
2022-08-12T11:37:48.397Z,1.83
2022-08-12T11:40:22.299Z,2.40
2022-08-12T11:42:50.062Z,2.22
2022-08-12T11:45:19.918Z,2.08
2022-08-12T11:47:46.927Z,1.92
2022-08-12T11:50:20.257Z,2.03
2022-08-12T11:52:55.457Z,2.05
2022-08-12T11:55:24.673Z,2.40
2022-08-12T11:58:47.772Z,2.25
2022-08-12T12:03:45.806Z,2.10
2022-08-12T12:06:16.360Z,2.00
2022-08-12T12:08:50.442Z,1.67
2022-08-12T12:11:17.689Z,2.15
2022-08-12T12:14:08.461Z,2.10
2022-08-12T12:16:31.277Z,2.20
2022-08-12T12:19:00.164Z,2.00
2022-08-12T12:21:48.797Z,2.30
2022-08-12T12:24:13.397Z,2.08
2022-08-12T12:26:47.670Z,1.90
2022-08-12T12:30:18.574Z,1.88
2022-08-12T12:32:15.059Z,2.30
2022-08-12T12:35:44.341Z,2.00
2022-08-12T12:38:03.718Z,2.10
2022-08-12T12:40:15.615Z,1.90
2022-08-12T12:42:57.922Z,2.30
2022-08-12T12:45:32.375Z,2.20
2022-08-12T12:48:04.057Z,2.00
2022-08-12T12:50:45.393Z,2.40
2022-08-12T12:54:05.880Z,2.00
2022-08-12T12:56:15.785Z,2.10
2022-08-12T12:58:43.614Z,2.03
2022-08-12T13:01:27.845Z,1.95
2022-08-12T13:04:02.035Z,2.22
2022-08-12T13:06:30.291Z,2.47
2022-08-12T13:09:03.619Z,2.20
2022-08-12T13:11:40.792Z,2.00
2022-08-12T13:14:28.100Z,2.40
2022-08-12T13:17:02.760Z,1.92
2022-08-12T13:19:45.204Z,2.00
2022-08-12T13:22:21.327Z,2.38
2022-08-12T13:24:55.609Z,1.98
2022-08-12T13:27:35.180Z,2.22
2022-08-12T13:30:17.658Z,2.10
2022-08-12T13:32:58.699Z,2.58
2022-08-12T13:36:02.888Z,1.90
2022-08-12T13:38:26.616Z,2.22
2022-08-12T13:41:01.528Z,2.30
2022-08-12T13:43:40.805Z,2.30
2022-08-12T13:46:12.444Z,2.50
2022-08-12T13:48:45.038Z,2.15
2022-08-12T13:51:13.172Z,2.28
2022-08-12T13:53:57.700Z,2.40
2022-08-12T13:56:34.692Z,2.10
2022-08-12T13:59:07.713Z,2.13
2022-08-12T14:01:40.043Z,2.10
2022-08-12T14:04:11.464Z,2.28
2022-08-12T14:06:39.432Z,1.92
2022-08-12T14:09:17.551Z,2.20
2022-08-12T14:11:58.901Z,1.80
2022-08-12T14:14:35.724Z,2.13
2022-08-12T14:17:10.644Z,2.08
2022-08-12T14:19:48.818Z,2.70
2022-08-12T14:22:26.056Z,2.10
2022-08-12T14:25:05.105Z,1.98
2022-08-12T14:28:04.565Z,1.88
2022-08-12T14:30:24.139Z,1.85
2022-08-12T14:32:55.762Z,2.20
2022-08-12T14:35:24.432Z,2.00
2022-08-12T14:37:57.572Z,2.03
2022-08-12T14:40:29.776Z,1.95
2022-08-12T14:42:58.289Z,1.90
2022-08-12T14:45:45.464Z,1.80
2022-08-12T14:48:15.072Z,1.83
2022-08-12T14:51:02.563Z,2.00
2022-08-12T14:59:57.446Z,1.90
2022-08-12T15:02:17.166Z,1.92
2022-08-12T15:04:45.360Z,2.00
2022-08-12T15:07:34.371Z,1.80
2022-08-12T15:10:02.826Z,2.13
2022-08-12T15:12:31.939Z,2.10
2022-08-12T15:14:59.859Z,1.90
2022-08-12T15:17:47.710Z,1.90
2022-08-12T15:20:40.375Z,2.10
2022-08-12T15:23:17.832Z,1.70
2022-08-12T15:25:49.868Z,1.80
2022-08-12T15:28:33.299Z,2.00
2022-08-12T15:31:00.859Z,2.03
2022-08-12T15:33:45.364Z,1.90
2022-08-12T15:36:14.421Z,1.67
2022-08-12T15:38:50.441Z,2.30
2022-08-12T15:41:22.218Z,1.90
2022-08-12T15:44:16.334Z,1.83
2022-08-12T15:46:37.012Z,2.00
2022-08-12T15:49:04.046Z,1.60
2022-08-12T15:51:58.506Z,1.73
2022-08-12T15:54:33.803Z,1.85
2022-08-12T15:57:07.935Z,1.95
2022-08-12T16:00:02.301Z,2.20
2022-08-12T16:02:22.890Z,1.70
2022-08-12T16:04:53.491Z,1.80
2022-08-12T16:07:29.706Z,2.00
2022-08-12T16:10:08.149Z,2.17
2022-08-12T16:12:54.617Z,1.90
2022-08-12T16:15:23.407Z,1.90
2022-08-12T16:18:19.800Z,2.30
2022-08-12T16:20:40.492Z,2.15
2022-08-12T16:23:26.860Z,1.83
2022-08-12T16:26:06.024Z,2.05
2022-08-12T16:28:37.410Z,2.10
2022-08-12T16:31:06.407Z,1.75
2022-08-12T16:33:59.468Z,1.70
2022-08-12T16:36:25.814Z,1.90
2022-08-12T16:38:53.079Z,1.70
2022-08-12T16:41:19.747Z,1.98
2022-08-12T16:43:46.751Z,1.73
2022-08-12T16:46:31.997Z,1.20
2022-08-12T16:49:04.220Z,1.75
2022-08-12T16:51:41.792Z,1.42
2022-08-12T16:54:14.101Z,1.55
2022-08-12T16:56:54.626Z,1.50
2022-08-12T16:59:31.176Z,1.45
2022-08-12T17:02:31.205Z,1.70
2022-08-12T17:05:06.543Z,1.52
2022-08-12T17:07:38.339Z,1.58
2022-08-12T17:10:12.832Z,1.58
2022-08-12T17:12:39.629Z,1.60
2022-08-12T17:15:21.463Z,1.65
2022-08-12T17:18:15.291Z,1.60
2022-08-12T17:20:47.068Z,1.20
2022-08-12T17:23:19.401Z,1.60
2022-08-12T17:25:50.481Z,1.25
2022-08-12T17:28:21.361Z,1.60
2022-08-12T17:30:57.472Z,1.67
2022-08-12T17:33:27.745Z,1.50
2022-08-12T17:36:02.973Z,1.52
2022-08-12T17:38:29.540Z,1.58
2022-08-12T17:40:57.400Z,1.50
2022-08-12T17:43:57.425Z,1.60
2022-08-12T17:46:23.950Z,1.60
2022-08-12T17:49:00.609Z,1.35
2022-08-12T17:51:49.977Z,1.40
2022-08-12T17:54:17.662Z,1.33
2022-08-12T17:56:47.180Z,1.58
2022-08-12T17:59:27.397Z,1.45
2022-08-12T18:02:08.160Z,1.85
2022-08-12T18:04:37.883Z,1.33
2022-08-12T18:07:28.000Z,1.55
2022-08-12T18:09:56.396Z,1.48
2022-08-12T18:12:42.770Z,1.60
2022-08-12T18:15:26.815Z,1.98
2022-08-12T18:18:05.978Z,1.70
2022-08-12T18:20:46.598Z,1.60
2022-08-12T18:23:13.234Z,1.67
2022-08-12T18:26:13.260Z,1.73
2022-08-12T18:28:44.572Z,1.70
2022-08-12T18:31:18.369Z,1.52
2022-08-12T18:33:46.606Z,1.70
2022-08-12T18:36:22.695Z,1.50
2022-08-12T18:38:56.181Z,1.70
2022-08-12T18:41:29.070Z,1.92
2022-08-12T18:44:09.796Z,1.60
2022-08-12T18:46:59.687Z,1.60
2022-08-12T18:49:39.494Z,1.40
2022-08-12T18:52:11.448Z,1.70
2022-08-12T18:54:48.712Z,1.60
2022-08-12T18:58:07.654Z,1.70
2022-08-12T19:00:09.946Z,1.60
2022-08-12T19:02:39.893Z,1.80
2022-08-12T19:05:11.727Z,1.90
2022-08-12T19:07:50.070Z,1.75
2022-08-12T19:10:28.419Z,1.77
2022-08-12T19:13:21.268Z,1.85
2022-08-12T19:15:50.142Z,3.03
2022-08-12T19:18:17.569Z,2.90
2022-08-12T19:20:51.101Z,2.20
2022-08-12T19:23:21.091Z,2.00
2022-08-12T19:26:01.167Z,2.13
2022-08-12T19:28:34.556Z,2.00
2022-08-12T19:31:56.775Z,1.85
2022-08-12T19:35:24.149Z,1.83
2022-08-12T19:37:38.713Z,1.90
2022-08-12T19:40:20.370Z,2.10
2022-08-12T19:43:01.745Z,1.92
2022-08-12T19:45:43.906Z,2.15
2022-08-12T19:48:18.975Z,2.25
2022-08-12T19:50:50.228Z,1.70
2022-08-12T19:53:19.871Z,2.22
2022-08-12T19:55:51.871Z,2.20
2022-08-12T19:58:20.382Z,2.00
2022-08-12T20:00:52.686Z,2.05
2022-08-12T20:03:38.253Z,1.92
2022-08-12T20:06:15.533Z,2.30
2022-08-12T20:08:56.090Z,1.98
2022-08-12T20:12:14.724Z,1.90
2022-08-12T20:14:19.205Z,2.22
2022-08-12T20:16:52.325Z,2.15
2022-08-12T20:19:23.373Z,1.90
2022-08-12T20:21:50.730Z,2.60
2022-08-12T20:24:19.144Z,2.50
2022-08-12T20:26:49.087Z,1.73
2022-08-12T20:29:16.662Z,2.00
2022-08-12T20:31:44.334Z,2.10
2022-08-12T20:34:12.077Z,2.20
2022-08-12T20:36:44.734Z,2.28
2022-08-12T20:39:33.857Z,1.95
2022-08-12T20:42:09.580Z,2.20
2022-08-12T20:44:41.352Z,2.60
2022-08-12T20:47:19.523Z,2.38
2022-08-12T20:49:55.885Z,2.20
2022-08-12T20:52:29.970Z,1.92
2022-08-12T20:55:15.825Z,2.30
2022-08-12T20:58:02.167Z,2.10
2022-08-12T21:00:33.582Z,1.95
2022-08-12T21:03:20.207Z,2.10
2022-08-12T21:06:12.032Z,2.30
2022-08-12T21:08:41.247Z,2.03
2022-08-12T21:11:10.342Z,1.85
2022-08-12T21:13:41.818Z,2.22
2022-08-12T21:16:12.263Z,2.10
2022-08-12T21:18:39.621Z,2.00
2022-08-12T21:21:23.796Z,2.08
2022-08-12T21:23:51.360Z,1.90
2022-08-12T21:26:26.348Z,1.95
2022-08-12T21:29:01.305Z,1.98
2022-08-12T21:32:36.106Z,2.03
2022-08-12T21:34:26.008Z,1.80
2022-08-12T21:36:53.038Z,1.73
2022-08-12T21:39:27.878Z,1.92
2022-08-12T21:42:07.424Z,2.38
2022-08-12T21:45:45.503Z,1.50
2022-08-12T21:47:28.836Z,2.25
2022-08-12T21:50:04.052Z,2.05
2022-08-12T21:52:40.972Z,2.28
2022-08-12T21:55:19.032Z,1.70
2022-08-12T21:57:53.069Z,2.15
2022-08-12T22:00:31.879Z,2.22
2022-08-12T22:03:17.977Z,1.85
2022-08-12T22:06:31.198Z,2.35
2022-08-12T22:09:17.142Z,2.17
2022-08-12T22:11:56.533Z,2.60
2022-08-12T22:14:29.046Z,2.50
2022-08-12T22:16:57.273Z,2.65
2022-08-12T22:19:24.510Z,2.40
2022-08-12T22:21:54.951Z,2.92
2022-08-12T22:24:26.716Z,3.25
2022-08-12T22:26:56.284Z,2.70
2022-08-12T22:29:42.970Z,2.65
2022-08-12T22:32:11.271Z,2.50
2022-08-12T22:34:39.194Z,2.63
2022-08-12T22:37:11.191Z,2.08
2022-08-12T22:39:46.500Z,2.55
2022-08-12T22:42:34.319Z,2.67
2022-08-12T22:45:23.390Z,2.30
2022-08-12T22:47:55.791Z,2.28
2022-08-12T22:50:29.624Z,2.58
2022-08-12T22:53:25.981Z,2.63
2022-08-12T22:56:06.844Z,2.55
2022-08-12T22:58:40.471Z,3.03
2022-08-12T23:01:10.883Z,2.80
2022-08-12T23:03:50.981Z,2.85
2022-08-12T23:06:25.387Z,2.65
2022-08-12T23:08:55.011Z,3.30
2022-08-12T23:11:23.689Z,2.42
2022-08-12T23:14:01.947Z,2.60
2022-08-12T23:16:34.093Z,2.70
2022-08-12T23:19:10.482Z,3.00
2022-08-12T23:22:03.919Z,3.05
2022-08-12T23:24:35.665Z,2.63
2022-08-12T23:27:21.614Z,2.85
2022-08-12T23:30:17.865Z,2.90
2022-08-12T23:32:39.574Z,2.85
2022-08-12T23:35:07.233Z,2.75
2022-08-12T23:37:46.467Z,2.95
2022-08-12T23:40:24.213Z,2.63
2022-08-12T23:42:54.328Z,2.53
2022-08-12T23:45:31.692Z,2.80
2022-08-12T23:48:01.857Z,2.70
2022-08-12T23:50:33.493Z,2.50
2022-08-12T23:53:05.773Z,2.65
2022-08-12T23:55:40.928Z,2.72
2022-08-12T23:58:21.221Z,2.90
